Time,TemperatureF,DewpointF,PressureIn,WindDirection,WindDirectionDegrees,WindSpeedMPH,WindSpeedGustMPH,Humidity,HourlyPrecipIn,Conditions,Clouds,dailyrainin,SoftwareType,DateUTC
2013-03-29 00:02:00,52.0,42.0,30.76,West,270,0.0,0.0,69,-99.99,,,-99.99,,2013-03-29 07:02:00,
2013-03-29 00:11:00,52.0,42.0,30.76,West,270,0.0,0.0,69,-99.99,,,-99.99,,2013-03-29 07:11:00,
2013-03-29 00:21:00,53.0,43.0,30.76,West,270,0.0,0.0,69,-99.99,,,-99.99,,2013-03-29 07:21:00,
2013-03-29 00:32:00,52.0,42.0,30.76,West,270,0.0,0.0,69,-99.99,,,-99.99,,2013-03-29 07:32:00,
2013-03-29 00:41:00,52.0,42.0,30.76,West,270,0.0,0.0,69,-99.99,,,-99.99,,2013-03-29 07:41:00,
2013-03-29 00:52:00,51.0,41.0,30.76,West,270,0.0,0.0,68,-99.99,,,-99.99,,2013-03-29 07:52:00,
2013-03-29 01:01:00,51.0,41.0,30.77,West,270,0.0,0.0,69,-99.99,,,-99.99,,2013-03-29 08:01:00,
2013-03-29 01:11:00,51.0,41.0,30.77,West,270,0.0,0.0,69,-99.99,,,-99.99,,2013-03-29 08:11:00,
2013-03-29 01:22:00,51.0,41.0,30.76,West,270,0.0,0.0,69,-99.99,,,-99.99,,2013-03-29 08:22:00,
2013-03-29 01:31:00,50.0,41.0,30.76,West,270,0.0,0.0,71,-99.99,,,-99.99,,2013-03-29 08:31:00,
2013-03-29 01:42:00,50.0,41.0,30.76,West,270,0.0,0.0,71,-99.99,,,-99.99,,2013-03-29 08:42:00,
2013-03-29 01:52:00,50.0,41.0,30.76,West,270,0.0,0.0,71,-99.99,,,-99.99,,2013-03-29 08:52:00,
2013-03-29 02:01:00,50.0,41.0,30.76,West,270,0.0,0.0,71,-99.99,,,-99.99,,2013-03-29 09:01:00,
2013-03-29 02:12:00,50.0,41.0,30.76,West,270,0.0,0.0,71,-99.99,,,-99.99,,2013-03-29 09:12:00,
2013-03-29 02:21:00,49.0,40.0,30.77,West,270,0.0,0.0,72,-99.99,,,-99.99,,2013-03-29 09:21:00,
2013-03-29 02:32:00,49.0,41.0,30.76,West,270,0.0,0.0,73,-99.99,,,-99.99,,2013-03-29 09:32:00,
2013-03-29 02:42:00,49.0,41.0,30.76,West,270,0.0,0.0,73,-99.99,,,-99.99,,2013-03-29 09:42:00,
2013-03-29 02:52:00,49.0,41.0,30.76,West,270,0.0,0.0,73,-99.99,,,-99.99,,2013-03-29 09:52:00,
2013-03-29 03:02:00,49.0,41.0,30.76,West,270,0.0,0.0,73,-99.99,,,-99.99,,2013-03-29 10:02:00,
2013-03-29 03:11:00,49.0,41.0,30.76,West,270,0.0,0.0,73,-99.99,,,-99.99,,2013-03-29 10:11:00,
2013-03-29 03:22:00,49.0,40.0,30.77,West,270,0.0,0.0,72,-99.99,,,-99.99,,2013-03-29 10:22:00,
2013-03-29 03:32:00,50.0,41.0,30.77,West,270,0.0,0.0,71,-99.99,,,-99.99,,2013-03-29 10:32:00,
2013-03-29 03:42:00,50.0,41.0,30.77,West,270,0.0,0.0,71,-99.99,,,-99.99,,2013-03-29 10:42:00,
2013-03-29 03:53:00,50.0,41.0,30.77,West,270,0.0,0.0,71,-99.99,,,-99.99,,2013-03-29 10:53:00,
2013-03-29 04:02:00,50.0,41.0,30.78,West,270,0.0,0.0,71,-99.99,,,-99.99,,2013-03-29 11:02:00,
2013-03-29 04:11:00,50.0,41.0,30.78,West,270,0.0,0.0,71,-99.99,,,-99.99,,2013-03-29 11:11:00,
2013-03-29 04:22:00,51.0,42.0,30.78,West,270,0.0,0.0,70,-99.99,,,-99.99,,2013-03-29 11:22:00,
2013-03-29 04:32:00,51.0,41.0,30.79,West,270,0.0,0.0,69,-99.99,,,-99.99,,2013-03-29 11:32:00,
2013-03-29 04:42:00,51.0,41.0,30.79,West,270,0.0,0.0,69,-99.99,,,-99.99,,2013-03-29 11:42:00,
2013-03-29 04:52:00,50.0,40.0,30.78,West,270,0.0,0.0,69,-99.99,,,-99.99,,2013-03-29 11:52:00,
2013-03-29 05:01:00,50.0,40.0,30.78,West,270,0.0,0.0,68,-99.99,,,-99.99,,2013-03-29 12:01:00,
2013-03-29 05:11:00,50.0,40.0,30.78,West,270,0.0,0.0,68,-99.99,,,-99.99,,2013-03-29 12:11:00,
2013-03-29 05:22:00,50.0,40.0,30.79,West,270,0.0,0.0,68,-99.99,,,-99.99,,2013-03-29 12:22:00,
2013-03-29 05:32:00,50.0,40.0,30.79,West,270,0.0,0.0,68,-99.99,,,-99.99,,2013-03-29 12:32:00,
2013-03-29 05:42:00,50.0,40.0,30.79,West,270,0.0,0.0,68,-99.99,,,-99.99,,2013-03-29 12:42:00,
2013-03-29 05:52:00,50.0,40.0,30.79,West,270,0.0,0.0,68,-99.99,,,-99.99,,2013-03-29 12:52:00,
2013-03-29 06:02:00,50.0,40.0,30.79,West,270,0.0,0.0,68,-99.99,,,-99.99,,2013-03-29 13:02:00,
2013-03-29 06:11:00,50.0,40.0,30.79,West,270,0.0,0.0,68,-99.99,,,-99.99,,2013-03-29 13:11:00,
2013-03-29 06:21:00,50.0,39.0,30.79,West,270,0.0,0.0,67,-99.99,,,-99.99,,2013-03-29 13:21:00,
2013-03-29 06:31:00,50.0,39.0,30.80,West,270,0.0,0.0,67,-99.99,,,-99.99,,2013-03-29 13:31:00,
2013-03-29 06:42:00,50.0,39.0,30.80,West,270,0.0,0.0,67,-99.99,,,-99.99,,2013-03-29 13:42:00,
2013-03-29 06:52:00,50.0,40.0,30.80,West,270,0.0,0.0,68,-99.99,,,-99.99,,2013-03-29 13:52:00,
2013-03-29 07:02:00,50.0,41.0,30.81,West,270,0.0,0.0,71,-99.99,,,-99.99,,2013-03-29 14:02:00,
2013-03-29 07:11:00,50.0,41.0,30.81,West,270,0.0,0.0,71,-99.99,,,-99.99,,2013-03-29 14:11:00,
2013-03-29 07:21:00,49.0,40.0,30.81,West,270,0.0,0.0,72,-99.99,,,-99.99,,2013-03-29 14:21:00,
2013-03-29 07:32:00,49.0,41.0,30.81,West,270,0.0,0.0,74,-99.99,,,-99.99,,2013-03-29 14:32:00,
2013-03-29 07:42:00,49.0,41.0,30.81,West,270,0.0,0.0,74,-99.99,,,-99.99,,2013-03-29 14:42:00,
2013-03-29 07:52:00,49.0,41.0,30.82,West,270,0.0,0.0,74,-99.99,,,-99.99,,2013-03-29 14:52:00,
2013-03-29 08:01:00,49.0,41.0,30.82,West,270,0.0,0.0,74,-99.99,,,-99.99,,2013-03-29 15:01:00,
2013-03-29 08:11:00,49.0,41.0,30.82,West,270,0.0,0.0,74,-99.99,,,-99.99,,2013-03-29 15:11:00,
2013-03-29 08:22:00,49.0,41.0,30.83,West,270,0.0,0.0,74,-99.99,,,-99.99,,2013-03-29 15:22:00,
2013-03-29 08:32:00,50.0,42.0,30.83,West,270,0.0,0.0,73,-99.99,,,-99.99,,2013-03-29 15:32:00,
2013-03-29 08:42:00,50.0,42.0,30.83,West,270,0.0,0.0,73,-99.99,,,-99.99,,2013-03-29 15:42:00,
2013-03-29 08:53:00,51.0,43.0,30.83,West,270,0.0,0.0,73,-99.99,,,-99.99,,2013-03-29 15:53:00,
2013-03-29 09:02:00,51.0,42.0,30.84,West,270,0.0,0.0,72,-99.99,,,-99.99,,2013-03-29 16:02:00,
2013-03-29 09:12:00,51.0,42.0,30.84,West,270,0.0,0.0,72,-99.99,,,-99.99,,2013-03-29 16:12:00,
2013-03-29 09:22:00,52.0,43.0,30.84,West,270,0.0,0.0,70,-99.99,,,-99.99,,2013-03-29 16:22:00,
2013-03-29 09:32:00,37.0,30.0,30.81,West,270,0.0,0.0,77,-99.99,,,-99.99,,2013-03-29 16:32:00,
2013-03-29 09:53:00,56.0,45.0,30.84,West,270,0.0,0.0,66,-99.99,,,-99.99,,2013-03-29 16:53:00,
2013-03-29 10:02:00,59.0,47.0,30.84,West,270,0.0,0.0,65,-99.99,,,-99.99,,2013-03-29 17:02:00,
2013-03-29 10:22:00,61.0,46.0,30.84,West,270,0.0,0.0,58,-99.99,,,-99.99,,2013-03-29 17:22:00,
2013-03-29 10:32:00,61.0,46.0,30.84,West,270,0.0,0.0,58,-99.99,,,-99.99,,2013-03-29 17:32:00,
2013-03-29 10:52:00,63.0,47.0,30.86,West,270,0.0,0.0,56,-99.99,,,-99.99,,2013-03-29 17:52:00,
2013-03-29 11:01:00,64.0,47.0,30.86,West,270,0.0,0.0,55,-99.99,,,-99.99,,2013-03-29 18:01:00,
2013-03-29 11:22:00,64.0,47.0,30.85,West,270,0.0,0.0,54,-99.99,,,-99.99,,2013-03-29 18:22:00,
2013-03-29 11:32:00,65.0,47.0,30.86,West,270,0.0,0.0,52,-99.99,,,-99.99,,2013-03-29 18:32:00,
2013-03-29 11:52:00,67.0,47.0,30.86,West,270,0.0,0.0,49,-99.99,,,-99.99,,2013-03-29 18:52:00,
2013-03-29 12:02:00,67.0,46.0,30.86,West,270,0.0,0.0,47,-99.99,,,-99.99,,2013-03-29 19:02:00,
2013-03-29 12:11:00,68.0,47.0,30.86,West,270,0.0,0.0,47,-99.99,,,-99.99,,2013-03-29 19:11:00,
2013-03-29 12:22:00,68.0,47.0,30.86,West,270,0.0,0.0,47,-99.99,,,-99.99,,2013-03-29 19:22:00,
2013-03-29 12:32:00,68.0,47.0,30.86,West,270,0.0,0.0,47,-99.99,,,-99.99,,2013-03-29 19:32:00,
2013-03-29 12:52:00,68.0,46.0,30.86,West,270,0.0,0.0,46,-99.99,,,-99.99,,2013-03-29 19:52:00,
2013-03-29 13:02:00,69.0,47.0,30.86,West,270,0.0,0.0,45,-99.99,,,-99.99,,2013-03-29 20:02:00,
2013-03-29 13:21:00,68.0,45.0,30.86,West,270,0.0,0.0,44,-99.99,,,-99.99,,2013-03-29 20:21:00,
2013-03-29 13:32:00,69.0,46.0,30.86,West,270,0.0,0.0,44,-99.99,,,-99.99,,2013-03-29 20:32:00,
2013-03-29 13:52:00,69.0,46.0,30.86,West,270,0.0,0.0,43,-99.99,,,-99.99,,2013-03-29 20:52:00,
2013-03-29 14:01:00,69.0,45.0,30.86,West,270,0.0,0.0,42,-99.99,,,-99.99,,2013-03-29 21:01:00,
2013-03-29 14:21:00,69.0,45.0,30.86,West,270,0.0,0.0,42,-99.99,,,-99.99,,2013-03-29 21:21:00,
2013-03-29 14:32:00,69.0,45.0,30.86,West,270,0.0,0.0,42,-99.99,,,-99.99,,2013-03-29 21:32:00,
2013-03-29 15:02:00,68.0,43.0,30.85,West,270,0.0,0.0,41,-99.99,,,-99.99,,2013-03-29 22:02:00,
2013-03-29 15:22:00,69.0,44.0,30.85,West,270,0.0,0.0,41,-99.99,,,-99.99,,2013-03-29 22:22:00,
2013-03-29 15:32:00,69.0,44.0,30.84,West,270,0.0,0.0,40,-99.99,,,-99.99,,2013-03-29 22:32:00,
2013-03-29 15:53:00,69.0,43.0,30.84,West,270,0.0,0.0,39,-99.99,,,-99.99,,2013-03-29 22:53:00,
2013-03-29 16:22:00,69.0,42.0,30.84,West,270,0.0,0.0,38,-99.99,,,-99.99,,2013-03-29 23:22:00,
2013-03-29 16:31:00,69.0,42.0,30.83,West,270,0.0,0.0,38,-99.99,,,-99.99,,2013-03-29 23:31:00,
2013-03-29 16:52:00,69.0,44.0,30.84,West,270,0.0,0.0,41,-99.99,,,-99.99,,2013-03-29 23:52:00,
2013-03-29 17:02:00,69.0,44.0,30.84,West,270,0.0,0.0,40,-99.99,,,-99.99,,2013-03-30 00:02:00,
2013-03-29 17:21:00,68.0,43.0,30.84,West,270,0.0,0.0,41,-99.99,,,-99.99,,2013-03-30 00:21:00,
2013-03-29 17:32:00,68.0,43.0,30.83,West,270,0.0,0.0,41,-99.99,,,-99.99,,2013-03-30 00:32:00,
2013-03-29 17:52:00,68.0,43.0,30.83,West,270,0.0,0.0,40,-99.99,,,-99.99,,2013-03-30 00:52:00,
2013-03-29 18:02:00,68.0,44.0,30.83,West,270,0.0,0.0,42,-99.99,,,-99.99,,2013-03-30 01:02:00,
2013-03-29 18:22:00,67.0,41.0,30.83,West,270,0.0,0.0,39,-99.99,,,-99.99,,2013-03-30 01:22:00,
2013-03-29 18:32:00,67.0,42.0,30.83,West,270,0.0,0.0,40,-99.99,,,-99.99,,2013-03-30 01:32:00,
2013-03-29 18:52:00,66.0,41.0,30.83,West,270,0.0,0.0,40,-99.99,,,-99.99,,2013-03-30 01:52:00,
2013-03-29 19:02:00,65.0,40.0,30.82,West,270,0.0,0.0,40,-99.99,,,-99.99,,2013-03-30 02:02:00,
2013-03-29 19:12:00,65.0,40.0,30.82,West,270,0.0,0.0,40,-99.99,,,-99.99,,2013-03-30 02:12:00,
2013-03-29 19:21:00,64.0,42.0,30.82,West,270,0.0,0.0,44,-99.99,,,-99.99,,2013-03-30 02:21:00,
2013-03-29 19:32:00,63.0,41.0,30.83,West,270,0.0,0.0,45,-99.99,,,-99.99,,2013-03-30 02:32:00,
2013-03-29 19:42:00,63.0,41.0,30.83,West,270,0.0,0.0,45,-99.99,,,-99.99,,2013-03-30 02:42:00,
2013-03-29 19:52:00,62.0,43.0,30.83,West,270,0.0,0.0,49,-99.99,,,-99.99,,2013-03-30 02:52:00,
2013-03-29 20:01:00,61.0,42.0,30.82,West,270,0.0,0.0,49,-99.99,,,-99.99,,2013-03-30 03:01:00,
2013-03-29 20:11:00,59.0,41.0,30.82,West,270,0.0,0.0,52,-99.99,,,-99.99,,2013-03-30 03:11:00,
2013-03-29 20:21:00,59.0,41.0,30.82,West,270,0.0,0.0,52,-99.99,,,-99.99,,2013-03-30 03:21:00,
2013-03-29 20:32:00,59.0,41.0,30.83,West,270,0.0,0.0,52,-99.99,,,-99.99,,2013-03-30 03:32:00,
2013-03-29 20:43:00,59.0,41.0,30.83,West,270,0.0,0.0,52,-99.99,,,-99.99,,2013-03-30 03:43:00,
2013-03-29 20:53:00,58.0,41.0,30.83,West,270,0.0,0.0,54,-99.99,,,-99.99,,2013-03-30 03:53:00,
2013-03-29 21:02:00,58.0,41.0,30.83,West,270,0.0,0.0,53,-99.99,,,-99.99,,2013-03-30 04:02:00,
2013-03-29 21:12:00,58.0,41.0,30.83,West,270,0.0,0.0,53,-99.99,,,-99.99,,2013-03-30 04:12:00,
2013-03-29 21:22:00,56.0,39.0,30.84,West,270,0.0,0.0,52,-99.99,,,-99.99,,2013-03-30 04:22:00,
2013-03-29 21:32:00,56.0,40.0,30.83,West,270,0.0,0.0,54,-99.99,,,-99.99,,2013-03-30 04:32:00,
2013-03-29 21:42:00,56.0,40.0,30.83,West,270,0.0,0.0,54,-99.99,,,-99.99,,2013-03-30 04:42:00,
2013-03-29 21:52:00,55.0,39.0,30.84,West,270,0.0,0.0,55,-99.99,,,-99.99,,2013-03-30 04:52:00,
2013-03-29 22:02:00,55.0,39.0,30.84,West,270,0.0,0.0,54,-99.99,,,-99.99,,2013-03-30 05:02:00,
2013-03-29 22:12:00,55.0,39.0,30.84,West,270,0.0,0.0,54,-99.99,,,-99.99,,2013-03-30 05:12:00,
2013-03-29 22:22:00,55.0,40.0,30.85,West,270,0.0,0.0,57,-99.99,,,-99.99,,2013-03-30 05:22:00,
2013-03-29 22:32:00,55.0,39.0,30.85,West,270,0.0,0.0,55,-99.99,,,-99.99,,2013-03-30 05:32:00,
2013-03-29 22:42:00,55.0,39.0,30.85,West,270,0.0,0.0,55,-99.99,,,-99.99,,2013-03-30 05:42:00,
2013-03-29 22:52:00,55.0,39.0,30.85,West,270,0.0,0.0,55,-99.99,,,-99.99,,2013-03-30 05:52:00,
2013-03-29 23:01:00,55.0,39.0,30.85,West,270,0.0,0.0,55,-99.99,,,-99.99,,2013-03-30 06:01:00,
2013-03-29 23:11:00,55.0,39.0,30.85,West,270,0.0,0.0,55,-99.99,,,-99.99,,2013-03-30 06:11:00,
2013-03-29 23:22:00,53.0,39.0,30.85,West,270,0.0,0.0,58,-99.99,,,-99.99,,2013-03-30 06:22:00,
2013-03-29 23:31:00,53.0,39.0,30.85,West,270,0.0,0.0,58,-99.99,,,-99.99,,2013-03-30 06:31:00,
2013-03-29 23:41:00,53.0,39.0,30.85,West,270,0.0,0.0,58,-99.99,,,-99.99,,2013-03-30 06:41:00,
2013-03-29 23:52:00,52.0,39.0,30.85,West,270,0.0,0.0,60,-99.99,,,-99.99,,2013-03-30 06:52:00,